Flight Track Log - Related Links

Times and Time Zones

All times are in EDT time to prevent confusion due to time zone crossing. See the TRS587 flight status page for this flight to view local times or setup timezone preferences in your user account.

Time Position Orientation Groundspeed Altitude Reporting Facility
EDT Latitude Longitude Course Direction KTS MPH feet Rate Location/Type
Sun 10:33:04 AM 28.4000 -81.3000 204° Southwest 186 214 700  Level Orlando TRACON
Sun 10:33:40 AM 28.3667 -81.3167 204° Southwest 210 242 1,500 1,765 Climbing Orlando TRACON
Sun 10:34:46 AM 28.3667 -81.3833 270° West 264 304 3,700 2,050 Climbing Orlando TRACON
Sun 10:35:40 AM 28.4000 -81.4333 307° West 283 326 5,600 2,100 Climbing Orlando TRACON
Sun 10:36:46 AM 28.5000 -81.4500 352° North 292 336 7,900 2,000 Climbing Orlando TRACON
Sun 10:37:52 AM 28.5833 -81.4833 341° North 309 356 10,000 1,327 Climbing Orlando TRACON
Sun 10:40:05 AM 28.7958 -81.5303 349° North 366 421 12,300 1,306 Climbing Jacksonville Center
Sun 10:41:05 AM 28.9025 -81.5572 348° North 373 429 14,200 1,650 Climbing Jacksonville Center
Sun 10:42:05 AM 29.0114 -81.5867 347° North 384 442 15,600 1,500 Climbing Jacksonville Center
Sun 10:43:05 AM 29.1225 -81.6139 348° North 390 449 17,200 1,550 Climbing Jacksonville Center
Sun 10:44:05 AM 29.2250 -81.6411 347° North 408 470 18,700 1,600 Climbing Jacksonville Center
Sun 10:45:05 AM 29.3422 -81.6728 347° North 418 481 20,400 1,500 Climbing Jacksonville Center
Sun 10:46:05 AM 29.4572 -81.7025 347° North 418 481 21,700 1,250 Climbing Jacksonville Center
Sun 10:47:05 AM 29.5786 -81.7344 347° North 429 494 22,900 1,200 Climbing Jacksonville Center
Sun 10:48:05 AM 29.7000 -81.7617 349° North 434 499 24,100 4,050 Climbing Jacksonville Center
Sun 10:49:05 AM 29.8233 -81.7936 347° North 440 506 31,000 900 Climbing Jacksonville Center
Sun 10:50:05 AM 29.9508 -81.8258 348° North 452 520 25,900 -2,150 Descending Jacksonville Center
Sun 10:51:05 AM 30.0786 -81.8581 348° North 452 520 26,700 850 Climbing Jacksonville Center
Sun 10:52:05 AM 30.2061 -81.8856 349° North 458 527 27,600 1,000 Climbing Jacksonville Center
Sun 10:53:05 AM 30.3356 -81.8722 North 463 533 28,700 1,200 Climbing Jacksonville Center
Sun 10:54:05 AM 30.4628 -81.8539 North 457 526 30,000 1,000 Climbing Jacksonville Center
Sun 10:55:05 AM 30.5919 -81.8406 North 464 534 30,700 500 Climbing Jacksonville Center
Sun 10:56:05 AM 30.7194 -81.8461 358° North 458 527 31,000 100 Climbing Jacksonville Center
Sun 10:57:05 AM 30.8433 -81.9319 329° Northwest 446 513 30,900 -50 Descending Jacksonville Center
Sun 10:58:05 AM 30.9483 -82.0181 325° Northwest 446 513 30,900  Level Jacksonville Center
Sun 10:59:05 AM 31.0533 -82.1044 325° Northwest 453 521 30,900  Level Jacksonville Center
Sun 11:00:05 AM 31.1603 -82.1983 323° Northwest 471 542 30,900  Level Jacksonville Center
Sun 11:01:05 AM 31.2653 -82.2850 325° Northwest 471 542 30,900 50 Level Jacksonville Center
Sun 11:02:05 AM 31.3636 -82.3622 326° Northwest 476 548 31,000 50 Climbing Jacksonville Center
Sun 11:03:05 AM 31.4683 -82.4517 324° Northwest 471 542 31,000  Level Jacksonville Center
Sun 11:05:33 AM 31.7611 -82.5856 339° North 471 542 31,000  Level Atlanta Center
Sun 11:06:33 AM 31.8847 -82.6250 345° North 465 535 31,000  Level Atlanta Center
Sun 11:07:33 AM 32.0103 -82.6672 344° North 465 535 31,000  Level Atlanta Center
Sun 11:08:33 AM 32.1486 -82.7117 345° North 465 535 31,000 350 Level Atlanta Center
Sun 11:09:33 AM 32.2722 -82.7517 345° North 459 528 31,700 500 Climbing Atlanta Center
Sun 11:10:33 AM 32.3956 -82.7942 344° North 459 528 32,000 150 Climbing Atlanta Center
Sun 11:11:33 AM 32.5172 -82.8367 344° North 459 528 32,000  Level Atlanta Center
Sun 11:12:33 AM 32.6261 -82.8747 344° North 445 512 32,000  Level Atlanta Center
Sun 11:13:33 AM 32.7497 -82.9150 345° North 445 512 32,000  Level Atlanta Center
Sun 11:14:33 AM 32.8731 -82.9581 344° North 450 518 32,000  Level Atlanta Center
Sun 11:15:33 AM 32.9925 -82.9986 344° North 450 518 32,000  Level Atlanta Center
Sun 11:16:33 AM 33.1139 -83.0442 343° North 458 527 32,000  Level Atlanta Center
Sun 11:17:33 AM 33.2394 -83.0850 345° North 463 533 32,000  Level Atlanta Center
Sun 11:18:33 AM 33.3608 -83.1261 344° North 455 524 32,000  Level Atlanta Center
Sun 11:19:33 AM 33.4842 -83.1644 345° North 462 532 32,000  Level Atlanta Center
Sun 11:20:33 AM 33.6056 -83.2083 343° North 457 526 32,000  Level Atlanta Center
Sun 11:21:33 AM 33.7311 -83.2519 344° North 462 532 32,000  Level Atlanta Center
Sun 11:22:33 AM 33.8525 -83.2933 344° North 457 526 32,000  Level Atlanta Center
Sun 11:23:33 AM 33.9758 -83.3350 344° North 457 526 32,000  Level Atlanta Center
Sun 11:24:33 AM 34.1056 -83.3714 347° North 457 526 32,000  Level Atlanta Center
Sun 11:25:33 AM 34.2414 -83.4081 347° North 451 519 32,000 50 Level Atlanta Center
Sun 11:26:33 AM 34.3689 -83.4447 347° North 451 519 32,100 450 Climbing Atlanta Center
Sun 11:27:33 AM 34.4942 -83.4817 346° North 456 525 32,900 850 Climbing Atlanta Center
Sun 11:28:33 AM 34.6175 -83.5164 347° North 456 525 33,800 550 Climbing Atlanta Center
Sun 11:29:33 AM 34.7283 -83.5561 344° North 456 525 34,000 100 Climbing Atlanta Center
Sun 11:30:33 AM 34.8703 -83.5881 350° North 456 525 34,000  Level Atlanta Center
Sun 11:31:33 AM 34.9914 -83.6281 345° North 450 518 34,000  Level Atlanta Center
Sun 11:32:33 AM 35.1147 -83.6631 347° North 450 518 34,000  Level Atlanta Center
Sun 11:33:33 AM 35.2400 -83.7006 346° North 450 518 34,000  Level Atlanta Center
Sun 11:34:33 AM 35.3653 -83.7356 347° North 450 518 34,000  Level Atlanta Center
Sun 11:35:33 AM 35.4886 -83.7736 346° North 450 518 34,000  Level Atlanta Center
Sun 11:36:33 AM 35.6117 -83.8089 347° North 450 518 34,000  Level Atlanta Center
Sun 11:37:33 AM 35.7328 -83.8444 347° North 450 518 34,000  Level Atlanta Center
Sun 11:38:33 AM 35.8558 -83.8800 347° North 450 518 34,000  Level Atlanta Center
Sun 11:40:07 AM 36.0142 -83.9756 334° Northwest 454 522 34,000  Level Indianapolis Center
Sun 11:41:08 AM 36.1408 -84.0706 329° Northwest 447 514 34,000  Level Indianapolis Center
Sun 11:42:09 AM 36.2481 -84.1503 329° Northwest 450 518 34,000  Level Indianapolis Center
Sun 11:43:10 AM 36.3539 -84.2294 329° Northwest 446 513 34,000  Level Indianapolis Center
Sun 11:44:12 AM 36.4586 -84.3086 329° Northwest 443 510 34,000  Level Indianapolis Center
Sun 11:45:13 AM 36.5833 -84.3633 341° North 453 521 34,000  Level Indianapolis Center
Sun 11:46:14 AM 36.7028 -84.4147 341° North 452 520 34,000  Level Indianapolis Center
Sun 11:47:15 AM 36.8236 -84.4628 342° North 453 521 34,000  Level Indianapolis Center
Sun 11:48:16 AM 36.9444 -84.5119 342° North 454 522 34,000  Level Indianapolis Center
Sun 11:49:17 AM 37.0661 -84.5631 341° North 457 526 34,000  Level Indianapolis Center
Sun 11:50:18 AM 37.1864 -84.6117 342° North 455 524 34,000  Level Indianapolis Center
Sun 11:51:19 AM 37.3056 -84.6606 342° North 449 517 34,000  Level Indianapolis Center
Sun 11:52:20 AM 37.4256 -84.7094 342° North 451 519 34,000  Level Indianapolis Center
Sun 11:53:22 AM 37.5450 -84.7594 342° North 450 518 34,000  Level Indianapolis Center
Sun 11:54:23 AM 37.6642 -84.8106 341° North 450 518 34,000  Level Indianapolis Center
Sun 11:55:24 AM 37.8042 -84.8686 342° North 452 520 34,000  Level Indianapolis Center
Sun 11:56:25 AM 37.9261 -84.9189 342° North 459 528 34,000  Level Indianapolis Center
Sun 11:57:26 AM 38.0458 -84.9692 342° North 455 524 34,000  Level Indianapolis Center
Sun 11:58:27 AM 38.1686 -85.0214 342° North 462 532 34,000  Level Indianapolis Center
Sun 11:59:29 AM 38.2922 -85.0722 342° North 465 535 34,000  Level Indianapolis Center
Sun 12:00:30 PM 38.4125 -85.1261 341° North 460 529 34,000  Level Indianapolis Center
Sun 12:01:31 PM 38.5364 -85.1786 342° North 465 535 34,000 -246 Level Indianapolis Center
Sun 12:02:32 PM 38.6486 -85.2275 341° North 463 533 33,500 -732 Descending Indianapolis Center
Sun 12:03:34 PM 38.7708 -85.2794 342° North 465 535 32,500 -1,610 Descending Indianapolis Center
Sun 12:04:35 PM 38.9111 -85.3403 341° North 448 516 30,200 -1,426 Descending Indianapolis Center
Sun 12:05:36 PM 39.0292 -85.3911 342° North 450 518 29,600 -590 Descending Indianapolis Center
Sun 12:06:37 PM 39.1469 -85.4431 341° North 448 516 29,000 -295 Descending Indianapolis Center
Sun 12:07:38 PM 39.2647 -85.4936 342° North 448 516 29,000  Level Indianapolis Center
Sun 12:08:40 PM 39.3808 -85.5458 341° North 446 513 29,000  Level Indianapolis Center
Sun 12:09:41 PM 39.4986 -85.5972 341° North 449 517 29,000  Level Indianapolis Center
Sun 12:10:42 PM 39.6161 -85.6492 341° North 449 517 29,000  Level Indianapolis Center
Sun 12:11:43 PM 39.7561 -85.7108 341° North 447 514 29,000 -537 Level Indianapolis Center
Sun 12:12:45 PM 39.8714 -85.7619 341° North 445 512 27,900 -1,707 Descending Indianapolis Center
Sun 12:13:46 PM 39.9856 -85.8139 341° North 442 509 25,500 -1,918 Descending Indianapolis Center
Sun 12:14:47 PM 40.0969 -85.8650 341° North 432 497 24,000 -738 Descending Indianapolis Center
Sun 12:15:48 PM 40.2028 -85.9289 335° Northwest 425 489 24,000 -439 Level Indianapolis Center
Sun 12:16:50 PM 40.3097 -85.9919 336° Northwest 425 489 23,100 -927 Descending Indianapolis Center
Sun 12:17:51 PM 40.4150 -86.0533 336° Northwest 417 480 22,100 -1,033 Descending Indianapolis Center
Sun 12:18:52 PM 40.5383 -86.1283 335° Northwest 411 473 21,000 -738 Descending Indianapolis Center
Sun 12:19:53 PM 40.6400 -86.1889 336° Northwest 406 467 20,600 -1,480 Descending Indianapolis Center
Sun 12:21:22 PM 40.7831 -86.2722 336° Northwest 398 458 17,300 -2,225 Descending Chicago Center
Sun 12:22:24 PM 40.8781 -86.3303 335° Northwest 380 437 15,000 -2,146 Descending Chicago Center
Sun 12:23:25 PM 40.9672 -86.3828 336° Northwest 355 409 12,900 -1,951 Descending Chicago Center
Sun 12:24:27 PM 41.0528 -86.4403 333° Northwest 348 400 11,000 -1,268 Descending Chicago Center
Sun 12:25:28 PM 41.1150 -86.5353 311° West 343 395 10,300 -488 Descending Chicago Center
Sun 12:26:30 PM 41.1778 -86.6317 311° West 344 396 10,000 -146 Descending Chicago Center
Sun 12:27:31 PM 41.2489 -86.7411 311° West 332 382 10,000  Level Chicago Center
Sun 12:28:33 PM 41.3081 -86.8353 310° West 331 381 10,000  Level Chicago Center
Sun 12:29:35 PM 41.3686 -86.9297 311° West 337 388 10,000 -439 Level Chicago Center
Sun 12:30:36 PM 41.4211 -87.0103 311° West 299 344 9,100 -1,268 Descending Chicago Center
Sun 12:31:38 PM 41.4628 -87.0911 305° West 270 311 7,400 -1,512 Descending Chicago Center
Sun 12:32:39 PM 41.5069 -87.1944 300° West 271 312 6,000 -683 Descending Chicago Center
Sun 12:33:41 PM 41.5386 -87.2800 296° West 264 304 6,000 -634 Level Chicago Center
Sun 12:34:42 PM 41.5742 -87.3642 299° West 262 302 4,700 -976 Descending Chicago Center
Sun 12:35:44 PM 41.6094 -87.4508 299° West 266 306 4,000 -341 Descending Chicago Center
Sun 12:36:45 PM 41.6444 -87.5369 299° West 266 306 4,000 -293 Level Chicago Center
Sun 12:37:47 PM 41.6836 -87.6081 306° West 251 289 3,400 -976 Descending Chicago Center
Sun 12:38:48 PM 41.7322 -87.6789 313° West 227 261 2,000 -1,073 Descending Chicago Center
Sun 12:39:50 PM 41.7617 -87.7208 313° West 189 217 1,200 -484 Descending Chicago Center
Sun 12:40:52 PM 41.7883 -87.7533 318° Northwest 178 205 1,000 -194 Descending Chicago Center
Sun 12:42:00 PM 41.7833 -87.7500 14° North  Level FlightAware Approximate

Login

Don't have an account? Register now (free) for customized features, flight alerts, and more!